sensor_id;sensor_type;location;lat;lon;timestamp;temperature;humidity
6106;DHT22;3083;51.508;7.966;2023-03-01T00:01:55;-2.90;99.90
6106;DHT22;3083;51.508;7.966;2023-03-01T00:04:22;-2.90;99.90
6106;DHT22;3083;51.508;7.966;2023-03-01T00:06:49;-3.00;99.90
6106;DHT22;3083;51.508;7.966;2023-03-01T00:09:16;-3.10;99.90
6106;DHT22;3083;51.508;7.966;2023-03-01T00:11:43;-3.10;99.90
6106;DHT22;3083;51.508;7.966;2023-03-01T00:14:10;-3.20;99.90
6106;DHT22;3083;51.508;7.966;2023-03-01T00:16:39;-3.20;99.90
6106;DHT22;3083;51.508;7.966;2023-03-01T00:19:09;-3.30;99.90
6106;DHT22;3083;51.508;7.966;2023-03-01T00:21:37;-3.30;99.90
6106;DHT22;3083;51.508;7.966;2023-03-01T00:24:04;-3.50;99.90
6106;DHT22;3083;51.508;7.966;2023-03-01T00:26:32;-3.60;99.90
6106;DHT22;3083;51.508;7.966;2023-03-01T00:28:59;-3.70;99.90
6106;DHT22;3083;51.508;7.966;2023-03-01T00:31:28;-3.70;99.90
6106;DHT22;3083;51.508;7.966;2023-03-01T00:33:57;-3.70;99.90
6106;DHT22;3083;51.508;7.966;2023-03-01T00:36:27;-3.70;99.90
6106;DHT22;3083;51.508;7.966;2023-03-01T00:38:54;-3.80;99.90
6106;DHT22;3083;51.508;7.966;2023-03-01T00:41:23;-3.80;99.90
6106;DHT22;3083;51.508;7.966;2023-03-01T00:43:52;-3.80;99.90
6106;DHT22;3083;51.508;7.966;2023-03-01T00:46:22;-3.80;99.90
6106;DHT22;3083;51.508;7.966;2023-03-01T00:48:49;-3.80;99.90
6106;DHT22;3083;51.508;7.966;2023-03-01T00:51:18;-3.80;99.90
6106;DHT22;3083;51.508;7.966;2023-03-01T00:53:49;-3.80;99.90
6106;DHT22;3083;51.508;7.966;2023-03-01T00:56:17;-3.80;99.90
6106;DHT22;3083;51.508;7.966;2023-03-01T00:58:44;-3.90;99.90
6106;DHT22;3083;51.508;7.966;2023-03-01T01:01:13;-3.90;99.90
6106;DHT22;3083;51.508;7.966;2023-03-01T01:03:45;-3.90;99.90
6106;DHT22;3083;51.508;7.966;2023-03-01T01:06:16;-4.00;99.90
6106;DHT22;3083;51.508;7.966;2023-03-01T01:08:43;-4.00;99.90
6106;DHT22;3083;51.508;7.966;2023-03-01T01:11:13;-4.10;99.90
6106;DHT22;3083;51.508;7.966;2023-03-01T01:13:40;-4.10;99.90
6106;DHT22;3083;51.508;7.966;2023-03-01T01:16:08;-4.20;99.90
6106;DHT22;3083;51.508;7.966;2023-03-01T01:18:35;-4.20;99.90
6106;DHT22;3083;51.508;7.966;2023-03-01T01:21:06;-4.20;99.90
6106;DHT22;3083;51.508;7.966;2023-03-01T01:23:34;-4.20;99.90
6106;DHT22;3083;51.508;7.966;2023-03-01T01:26:05;-4.20;99.90
6106;DHT22;3083;51.508;7.966;2023-03-01T01:28:33;-4.10;99.90
6106;DHT22;3083;51.508;7.966;2023-03-01T01:31:00;-4.00;99.90
6106;DHT22;3083;51.508;7.966;2023-03-01T01:33:28;-4.00;99.90
6106;DHT22;3083;51.508;7.966;2023-03-01T01:35:55;-4.00;99.90
6106;DHT22;3083;51.508;7.966;2023-03-01T01:38:23;-3.90;99.90
6106;DHT22;3083;51.508;7.966;2023-03-01T01:40:50;-3.90;99.90
6106;DHT22;3083;51.508;7.966;2023-03-01T01:43:21;-3.90;99.90
6106;DHT22;3083;51.508;7.966;2023-03-01T01:45:53;-3.90;99.90
6106;DHT22;3083;51.508;7.966;2023-03-01T01:48:24;-3.90;99.90
6106;DHT22;3083;51.508;7.966;2023-03-01T01:51:01;-3.80;99.90
6106;DHT22;3083;51.508;7.966;2023-03-01T01:53:28;-3.80;99.90
6106;DHT22;3083;51.508;7.966;2023-03-01T01:55:58;-3.80;99.90
6106;DHT22;3083;51.508;7.966;2023-03-01T01:58:29;-3.80;99.90
6106;DHT22;3083;51.508;7.966;2023-03-01T02:00:58;-3.90;99.90
6106;DHT22;3083;51.508;7.966;2023-03-01T02:03:28;-3.90;99.90
6106;DHT22;3083;51.508;7.966;2023-03-01T02:06:03;-3.90;99.90
6106;DHT22;3083;51.508;7.966;2023-03-01T02:08:35;-3.80;99.90
6106;DHT22;3083;51.508;7.966;2023-03-01T02:11:03;-3.80;99.90
6106;DHT22;3083;51.508;7.966;2023-03-01T02:13:31;-3.80;99.90
6106;DHT22;3083;51.508;7.966;2023-03-01T02:16:02;-3.80;99.90
6106;DHT22;3083;51.508;7.966;2023-03-01T02:18:30;-3.80;99.90
6106;DHT22;3083;51.508;7.966;2023-03-01T02:21:06;-3.80;99.90
6106;DHT22;3083;51.508;7.966;2023-03-01T02:23:36;-3.80;99.90
6106;DHT22;3083;51.508;7.966;2023-03-01T02:26:07;-3.90;99.90
6106;DHT22;3083;51.508;7.966;2023-03-01T02:28:39;-3.90;99.90
6106;DHT22;3083;51.508;7.966;2023-03-01T02:31:08;-3.90;99.90
6106;DHT22;3083;51.508;7.966;2023-03-01T02:33:54;-3.90;99.90
6106;DHT22;3083;51.508;7.966;2023-03-01T02:36:24;-3.80;99.90
6106;DHT22;3083;51.508;7.966;2023-03-01T02:38:55;-3.70;99.90
6106;DHT22;3083;51.508;7.966;2023-03-01T02:41:24;-3.60;99.90
6106;DHT22;3083;51.508;7.966;2023-03-01T02:43:55;-3.40;99.90
6106;DHT22;3083;51.508;7.966;2023-03-01T02:46:23;-3.10;99.90
6106;DHT22;3083;51.508;7.966;2023-03-01T02:48:53;-3.00;99.90
6106;DHT22;3083;51.508;7.966;2023-03-01T02:51:42;-3.10;99.90
6106;DHT22;3083;51.508;7.966;2023-03-01T02:54:17;-3.10;99.90
6106;DHT22;3083;51.508;7.966;2023-03-01T02:56:48;-3.10;99.90
6106;DHT22;3083;51.508;7.966;2023-03-01T02:59:20;-3.20;99.90
6106;DHT22;3083;51.508;7.966;2023-03-01T03:01:48;-3.20;99.90
6106;DHT22;3083;51.508;7.966;2023-03-01T03:04:17;-3.30;99.90
6106;DHT22;3083;51.508;7.966;2023-03-01T03:06:45;-3.30;99.90
6106;DHT22;3083;51.508;7.966;2023-03-01T03:09:13;-3.40;99.90
6106;DHT22;3083;51.508;7.966;2023-03-01T03:11:41;-3.30;99.90
6106;DHT22;3083;51.508;7.966;2023-03-01T03:14:09;-3.20;99.90
6106;DHT22;3083;51.508;7.966;2023-03-01T03:16:41;-3.30;99.90
6106;DHT22;3083;51.508;7.966;2023-03-01T03:19:09;-3.30;99.90
6106;DHT22;3083;51.508;7.966;2023-03-01T03:21:36;-3.30;99.90
6106;DHT22;3083;51.508;7.966;2023-03-01T03:24:04;-3.30;99.90
6106;DHT22;3083;51.508;7.966;2023-03-01T03:26:31;-3.40;99.90
6106;DHT22;3083;51.508;7.966;2023-03-01T03:28:59;-3.40;99.90
6106;DHT22;3083;51.508;7.966;2023-03-01T03:31:25;-3.50;99.90
6106;DHT22;3083;51.508;7.966;2023-03-01T03:33:54;-3.60;99.90
6106;DHT22;3083;51.508;7.966;2023-03-01T03:36:23;-3.60;99.90
6106;DHT22;3083;51.508;7.966;2023-03-01T03:38:51;-3.70;99.90
6106;DHT22;3083;51.508;7.966;2023-03-01T03:41:17;-3.70;99.90
6106;DHT22;3083;51.508;7.966;2023-03-01T03:43:44;-3.80;99.90
6106;DHT22;3083;51.508;7.966;2023-03-01T03:46:12;-3.80;99.90
6106;DHT22;3083;51.508;7.966;2023-03-01T03:48:40;-3.90;99.90
6106;DHT22;3083;51.508;7.966;2023-03-01T03:51:11;-4.00;99.90
6106;DHT22;3083;51.508;7.966;2023-03-01T03:53:39;-4.00;99.90
6106;DHT22;3083;51.508;7.966;2023-03-01T03:56:07;-4.10;99.90
6106;DHT22;3083;51.508;7.966;2023-03-01T03:58:34;-4.10;99.90
6106;DHT22;3083;51.508;7.966;2023-03-01T04:01:01;-4.10;99.90
6106;DHT22;3083;51.508;7.966;2023-03-01T04:03:30;-4.20;99.90
6106;DHT22;3083;51.508;7.966;2023-03-01T04:05:58;-4.20;99.90
6106;DHT22;3083;51.508;7.966;2023-03-01T04:08:27;-4.30;99.90
6106;DHT22;3083;51.508;7.966;2023-03-01T04:10:58;-4.40;99.90
6106;DHT22;3083;51.508;7.966;2023-03-01T04:13:26;-4.40;99.90
6106;DHT22;3083;51.508;7.966;2023-03-01T04:15:53;-4.50;99.90
6106;DHT22;3083;51.508;7.966;2023-03-01T04:18:22;-4.50;99.90
6106;DHT22;3083;51.508;7.966;2023-03-01T04:20:50;-4.50;99.90
6106;DHT22;3083;51.508;7.966;2023-03-01T04:23:21;-4.50;99.90
6106;DHT22;3083;51.508;7.966;2023-03-01T04:25:51;-4.50;99.90
6106;DHT22;3083;51.508;7.966;2023-03-01T04:28:20;-4.50;99.90
6106;DHT22;3083;51.508;7.966;2023-03-01T04:30:47;-4.50;99.90
6106;DHT22;3083;51.508;7.966;2023-03-01T04:33:14;-4.50;99.90
6106;DHT22;3083;51.508;7.966;2023-03-01T04:35:41;-4.50;99.90
6106;DHT22;3083;51.508;7.966;2023-03-01T04:38:08;-4.50;99.90
6106;DHT22;3083;51.508;7.966;2023-03-01T04:40:35;-4.40;99.90
6106;DHT22;3083;51.508;7.966;2023-03-01T04:43:04;-4.40;99.90
6106;DHT22;3083;51.508;7.966;2023-03-01T04:45:32;-4.30;99.90
6106;DHT22;3083;51.508;7.966;2023-03-01T04:48:00;-4.30;99.90
6106;DHT22;3083;51.508;7.966;2023-03-01T04:50:27;-4.30;99.90
6106;DHT22;3083;51.508;7.966;2023-03-01T04:52:54;-4.30;99.90
6106;DHT22;3083;51.508;7.966;2023-03-01T04:55:24;-4.40;99.90
6106;DHT22;3083;51.508;7.966;2023-03-01T04:57:51;-4.40;99.90
6106;DHT22;3083;51.508;7.966;2023-03-01T05:00:21;-4.50;99.90
6106;DHT22;3083;51.508;7.966;2023-03-01T05:02:50;-4.60;99.90
6106;DHT22;3083;51.508;7.966;2023-03-01T05:05:24;-4.70;99.90
6106;DHT22;3083;51.508;7.966;2023-03-01T05:07:53;-4.70;99.90
6106;DHT22;3083;51.508;7.966;2023-03-01T05:10:20;-4.70;99.90
6106;DHT22;3083;51.508;7.966;2023-03-01T05:12:47;-4.80;99.90
6106;DHT22;3083;51.508;7.966;2023-03-01T05:15:14;-4.80;99.90
6106;DHT22;3083;51.508;7.966;2023-03-01T05:17:43;-4.90;99.90
6106;DHT22;3083;51.508;7.966;2023-03-01T05:20:12;-4.90;99.90
6106;DHT22;3083;51.508;7.966;2023-03-01T05:22:38;-5.00;99.90
6106;DHT22;3083;51.508;7.966;2023-03-01T05:25:06;-5.00;99.90
6106;DHT22;3083;51.508;7.966;2023-03-01T05:27:34;-5.10;99.90
6106;DHT22;3083;51.508;7.966;2023-03-01T05:30:01;-5.10;99.90
6106;DHT22;3083;51.508;7.966;2023-03-01T05:32:40;-5.20;99.90
6106;DHT22;3083;51.508;7.966;2023-03-01T05:35:09;-5.30;99.90
6106;DHT22;3083;51.508;7.966;2023-03-01T05:37:39;-5.30;99.90
6106;DHT22;3083;51.508;7.966;2023-03-01T05:40:08;-5.30;99.90
6106;DHT22;3083;51.508;7.966;2023-03-01T05:42:42;-5.30;99.90
6106;DHT22;3083;51.508;7.966;2023-03-01T05:45:11;-5.40;99.90
6106;DHT22;3083;51.508;7.966;2023-03-01T05:47:41;-5.40;99.90
6106;DHT22;3083;51.508;7.966;2023-03-01T05:50:13;-5.40;99.90
6106;DHT22;3083;51.508;7.966;2023-03-01T05:52:44;-5.40;99.90
6106;DHT22;3083;51.508;7.966;2023-03-01T05:55:11;-5.50;99.90
6106;DHT22;3083;51.508;7.966;2023-03-01T05:57:38;-5.50;99.90
6106;DHT22;3083;51.508;7.966;2023-03-01T06:00:07;-5.60;99.90
6106;DHT22;3083;51.508;7.966;2023-03-01T06:02:34;-5.60;99.90
6106;DHT22;3083;51.508;7.966;2023-03-01T06:05:01;-5.60;99.90
6106;DHT22;3083;51.508;7.966;2023-03-01T06:07:29;-5.60;99.90
6106;DHT22;3083;51.508;7.966;2023-03-01T06:09:56;-5.70;99.90
6106;DHT22;3083;51.508;7.966;2023-03-01T06:12:23;-5.70;99.90
6106;DHT22;3083;51.508;7.966;2023-03-01T06:14:50;-5.70;99.90
6106;DHT22;3083;51.508;7.966;2023-03-01T06:17:17;-5.70;99.90
6106;DHT22;3083;51.508;7.966;2023-03-01T06:19:44;-5.60;99.90
6106;DHT22;3083;51.508;7.966;2023-03-01T06:22:11;-5.70;99.90
6106;DHT22;3083;51.508;7.966;2023-03-01T06:24:39;-5.70;99.90
6106;DHT22;3083;51.508;7.966;2023-03-01T06:27:06;-5.70;99.90
6106;DHT22;3083;51.508;7.966;2023-03-01T06:29:33;-5.70;99.90
6106;DHT22;3083;51.508;7.966;2023-03-01T06:32:00;-5.70;99.90
6106;DHT22;3083;51.508;7.966;2023-03-01T06:34:28;-5.70;99.90
6106;DHT22;3083;51.508;7.966;2023-03-01T06:36:55;-5.70;99.90
6106;DHT22;3083;51.508;7.966;2023-03-01T06:39:22;-5.70;99.90
6106;DHT22;3083;51.508;7.966;2023-03-01T06:41:50;-5.60;99.90
6106;DHT22;3083;51.508;7.966;2023-03-01T06:44:18;-5.60;99.90
6106;DHT22;3083;51.508;7.966;2023-03-01T06:46:45;-5.60;99.90
6106;DHT22;3083;51.508;7.966;2023-03-01T06:49:11;-5.50;99.90
6106;DHT22;3083;51.508;7.966;2023-03-01T06:51:38;-5.40;99.90
6106;DHT22;3083;51.508;7.966;2023-03-01T06:54:06;-5.30;99.90
6106;DHT22;3083;51.508;7.966;2023-03-01T06:56:33;-5.20;99.90
6106;DHT22;3083;51.508;7.966;2023-03-01T06:59:02;-5.00;99.90
6106;DHT22;3083;51.508;7.966;2023-03-01T07:01:29;-4.80;99.90
6106;DHT22;3083;51.508;7.966;2023-03-01T07:03:56;-4.60;99.90
6106;DHT22;3083;51.508;7.966;2023-03-01T07:06:23;-4.40;99.90
6106;DHT22;3083;51.508;7.966;2023-03-01T07:08:50;-4.10;99.90
6106;DHT22;3083;51.508;7.966;2023-03-01T07:11:17;-3.70;99.90
6106;DHT22;3083;51.508;7.966;2023-03-01T07:13:44;-3.40;99.90
6106;DHT22;3083;51.508;7.966;2023-03-01T07:16:12;-3.10;99.90
6106;DHT22;3083;51.508;7.966;2023-03-01T07:18:39;-2.80;99.90
6106;DHT22;3083;51.508;7.966;2023-03-01T07:21:07;-2.40;99.90
6106;DHT22;3083;51.508;7.966;2023-03-01T07:23:35;-2.20;99.90
6106;DHT22;3083;51.508;7.966;2023-03-01T07:26:02;-1.90;99.90
6106;DHT22;3083;51.508;7.966;2023-03-01T07:28:29;-1.70;99.90
6106;DHT22;3083;51.508;7.966;2023-03-01T07:31:00;-1.60;99.90
6106;DHT22;3083;51.508;7.966;2023-03-01T07:33:29;-1.40;99.90
6106;DHT22;3083;51.508;7.966;2023-03-01T07:35:57;-1.30;99.90
6106;DHT22;3083;51.508;7.966;2023-03-01T07:38:24;-1.10;99.90
6106;DHT22;3083;51.508;7.966;2023-03-01T07:40:51;-1.00;99.90
6106;DHT22;3083;51.508;7.966;2023-03-01T07:43:18;-0.80;99.90
6106;DHT22;3083;51.508;7.966;2023-03-01T07:45:46;-0.60;99.90
6106;DHT22;3083;51.508;7.966;2023-03-01T07:48:12;-0.50;99.90
6106;DHT22;3083;51.508;7.966;2023-03-01T07:50:41;-0.40;99.90
6106;DHT22;3083;51.508;7.966;2023-03-01T07:53:08;-0.20;99.90
6106;DHT22;3083;51.508;7.966;2023-03-01T07:55:35;0.00;99.90
6106;DHT22;3083;51.508;7.966;2023-03-01T07:58:02;0.20;99.90
6106;DHT22;3083;51.508;7.966;2023-03-01T08:00:29;0.50;99.90
6106;DHT22;3083;51.508;7.966;2023-03-01T08:02:59;0.70;99.90
6106;DHT22;3083;51.508;7.966;2023-03-01T08:05:27;1.00;99.90
6106;DHT22;3083;51.508;7.966;2023-03-01T08:07:55;1.20;99.90
6106;DHT22;3083;51.508;7.966;2023-03-01T08:10:22;1.40;99.90
6106;DHT22;3083;51.508;7.966;2023-03-01T08:12:51;1.60;99.90
6106;DHT22;3083;51.508;7.966;2023-03-01T08:15:19;1.80;99.90
6106;DHT22;3083;51.508;7.966;2023-03-01T08:17:49;1.90;99.90
6106;DHT22;3083;51.508;7.966;2023-03-01T08:20:16;2.10;99.90
6106;DHT22;3083;51.508;7.966;2023-03-01T08:22:43;2.20;99.90
6106;DHT22;3083;51.508;7.966;2023-03-01T08:25:12;2.40;99.90
6106;DHT22;3083;51.508;7.966;2023-03-01T08:27:38;2.50;99.90
6106;DHT22;3083;51.508;7.966;2023-03-01T08:30:07;2.70;99.90
6106;DHT22;3083;51.508;7.966;2023-03-01T08:32:36;2.90;99.90
6106;DHT22;3083;51.508;7.966;2023-03-01T08:35:04;3.10;99.90
6106;DHT22;3083;51.508;7.966;2023-03-01T08:37:31;3.20;99.90
6106;DHT22;3083;51.508;7.966;2023-03-01T08:39:58;3.20;99.90
6106;DHT22;3083;51.508;7.966;2023-03-01T08:42:27;3.20;99.90
6106;DHT22;3083;51.508;7.966;2023-03-01T08:44:54;3.20;99.90
6106;DHT22;3083;51.508;7.966;2023-03-01T08:47:22;3.30;99.90
6106;DHT22;3083;51.508;7.966;2023-03-01T08:49:49;3.50;99.90
6106;DHT22;3083;51.508;7.966;2023-03-01T08:52:16;3.70;99.90
6106;DHT22;3083;51.508;7.966;2023-03-01T08:54:43;3.80;99.90
6106;DHT22;3083;51.508;7.966;2023-03-01T08:57:10;3.80;99.90
6106;DHT22;3083;51.508;7.966;2023-03-01T08:59:39;3.70;99.90
6106;DHT22;3083;51.508;7.966;2023-03-01T09:02:12;3.70;99.90
6106;DHT22;3083;51.508;7.966;2023-03-01T09:04:39;3.80;99.90
6106;DHT22;3083;51.508;7.966;2023-03-01T09:07:07;3.90;99.90
6106;DHT22;3083;51.508;7.966;2023-03-01T09:09:35;4.00;99.90
6106;DHT22;3083;51.508;7.966;2023-03-01T09:12:03;3.90;99.90
6106;DHT22;3083;51.508;7.966;2023-03-01T09:14:30;3.90;99.90
6106;DHT22;3083;51.508;7.966;2023-03-01T09:16:58;4.00;99.90
6106;DHT22;3083;51.508;7.966;2023-03-01T09:19:28;4.00;99.90
6106;DHT22;3083;51.508;7.966;2023-03-01T09:21:55;3.90;99.90
6106;DHT22;3083;51.508;7.966;2023-03-01T09:24:24;3.80;99.90
6106;DHT22;3083;51.508;7.966;2023-03-01T09:26:53;3.70;99.90
6106;DHT22;3083;51.508;7.966;2023-03-01T09:29:20;3.70;99.90
6106;DHT22;3083;51.508;7.966;2023-03-01T09:31:47;3.70;99.90
6106;DHT22;3083;51.508;7.966;2023-03-01T09:34:16;3.80;99.90
6106;DHT22;3083;51.508;7.966;2023-03-01T09:36:48;3.80;99.90
6106;DHT22;3083;51.508;7.966;2023-03-01T09:39:15;3.90;99.90
6106;DHT22;3083;51.508;7.966;2023-03-01T09:41:46;4.00;99.90
6106;DHT22;3083;51.508;7.966;2023-03-01T09:44:27;4.10;99.90
6106;DHT22;3083;51.508;7.966;2023-03-01T09:46:56;4.20;99.90
6106;DHT22;3083;51.508;7.966;2023-03-01T09:49:27;4.20;99.90
6106;DHT22;3083;51.508;7.966;2023-03-01T09:51:59;4.20;99.90
6106;DHT22;3083;51.508;7.966;2023-03-01T09:54:27;4.10;99.90
6106;DHT22;3083;51.508;7.966;2023-03-01T09:57:03;4.20;99.90
6106;DHT22;3083;51.508;7.966;2023-03-01T09:59:37;4.30;99.90
6106;DHT22;3083;51.508;7.966;2023-03-01T10:02:21;4.30;99.90
6106;DHT22;3083;51.508;7.966;2023-03-01T10:04:51;4.20;99.90
6106;DHT22;3083;51.508;7.966;2023-03-01T10:07:29;4.40;99.90
6106;DHT22;3083;51.508;7.966;2023-03-01T10:09:59;4.60;99.90
6106;DHT22;3083;51.508;7.966;2023-03-01T10:12:33;4.70;99.90
6106;DHT22;3083;51.508;7.966;2023-03-01T10:15:05;4.80;99.90
6106;DHT22;3083;51.508;7.966;2023-03-01T10:17:38;4.80;99.90
6106;DHT22;3083;51.508;7.966;2023-03-01T10:20:16;4.70;99.90
6106;DHT22;3083;51.508;7.966;2023-03-01T10:22:44;4.80;99.90
6106;DHT22;3083;51.508;7.966;2023-03-01T10:25:17;4.90;99.90
6106;DHT22;3083;51.508;7.966;2023-03-01T10:27:52;5.00;99.90
6106;DHT22;3083;51.508;7.966;2023-03-01T10:30:21;5.20;99.90
6106;DHT22;3083;51.508;7.966;2023-03-01T10:32:51;5.30;99.90
6106;DHT22;3083;51.508;7.966;2023-03-01T10:35:22;5.30;99.90
6106;DHT22;3083;51.508;7.966;2023-03-01T10:38:03;5.40;99.90
6106;DHT22;3083;51.508;7.966;2023-03-01T10:40:31;5.50;99.90
6106;DHT22;3083;51.508;7.966;2023-03-01T10:43:01;5.70;99.90
6106;DHT22;3083;51.508;7.966;2023-03-01T10:45:34;5.70;99.90
6106;DHT22;3083;51.508;7.966;2023-03-01T10:48:12;5.60;99.90
6106;DHT22;3083;51.508;7.966;2023-03-01T10:50:42;5.60;99.90
6106;DHT22;3083;51.508;7.966;2023-03-01T10:53:25;5.60;99.90
6106;DHT22;3083;51.508;7.966;2023-03-01T10:55:59;5.60;99.90
6106;DHT22;3083;51.508;7.966;2023-03-01T10:58:28;5.80;99.90
6106;DHT22;3083;51.508;7.966;2023-03-01T11:00:56;5.90;99.90
6106;DHT22;3083;51.508;7.966;2023-03-01T11:03:25;5.90;99.90
6106;DHT22;3083;51.508;7.966;2023-03-01T11:06:06;6.00;99.90
6106;DHT22;3083;51.508;7.966;2023-03-01T11:08:47;6.10;99.90
6106;DHT22;3083;51.508;7.966;2023-03-01T11:11:31;6.10;99.90
6106;DHT22;3083;51.508;7.966;2023-03-01T11:14:01;6.00;99.90
6106;DHT22;3083;51.508;7.966;2023-03-01T11:16:33;6.00;99.90
6106;DHT22;3083;51.508;7.966;2023-03-01T11:19:19;6.00;99.90
6106;DHT22;3083;51.508;7.966;2023-03-01T11:22:11;5.90;99.90
6106;DHT22;3083;51.508;7.966;2023-03-01T11:24:41;5.90;99.90
6106;DHT22;3083;51.508;7.966;2023-03-01T11:27:16;6.00;99.90
6106;DHT22;3083;51.508;7.966;2023-03-01T11:29:46;6.00;99.90
6106;DHT22;3083;51.508;7.966;2023-03-01T11:32:16;6.00;99.90
6106;DHT22;3083;51.508;7.966;2023-03-01T11:34:48;6.10;99.90
6106;DHT22;3083;51.508;7.966;2023-03-01T11:37:22;6.10;99.90
6106;DHT22;3083;51.508;7.966;2023-03-01T11:39:58;6.00;99.90
6106;DHT22;3083;51.508;7.966;2023-03-01T11:42:42;5.90;99.90
6106;DHT22;3083;51.508;7.966;2023-03-01T11:45:12;5.90;99.90
6106;DHT22;3083;51.508;7.966;2023-03-01T11:48:03;5.90;99.90
6106;DHT22;3083;51.508;7.966;2023-03-01T11:50:38;5.90;99.90
6106;DHT22;3083;51.508;7.966;2023-03-01T11:53:33;5.90;99.90
6106;DHT22;3083;51.508;7.966;2023-03-01T11:56:16;5.90;99.90
6106;DHT22;3083;51.508;7.966;2023-03-01T12:02:00;6.00;99.90
6106;DHT22;3083;51.508;7.966;2023-03-01T12:04:57;6.10;99.90
6106;DHT22;3083;51.508;7.966;2023-03-01T12:07:31;6.00;99.90
6106;DHT22;3083;51.508;7.966;2023-03-01T12:10:20;6.00;99.90
6106;DHT22;3083;51.508;7.966;2023-03-01T12:13:04;6.10;99.90
6106;DHT22;3083;51.508;7.966;2023-03-01T12:15:46;6.10;99.90
6106;DHT22;3083;51.508;7.966;2023-03-01T12:18:31;6.20;99.90
6106;DHT22;3083;51.508;7.966;2023-03-01T12:21:08;6.20;99.90
6106;DHT22;3083;51.508;7.966;2023-03-01T12:23:54;6.20;99.90
6106;DHT22;3083;51.508;7.966;2023-03-01T12:26:31;6.30;99.90
6106;DHT22;3083;51.508;7.966;2023-03-01T12:29:22;6.40;99.90
6106;DHT22;3083;51.508;7.966;2023-03-01T12:32:03;6.40;99.90
6106;DHT22;3083;51.508;7.966;2023-03-01T12:34:53;6.50;99.90
6106;DHT22;3083;51.508;7.966;2023-03-01T12:37:28;6.40;99.90
6106;DHT22;3083;51.508;7.966;2023-03-01T12:40:23;6.40;99.90
6106;DHT22;3083;51.508;7.966;2023-03-01T12:43:06;6.30;99.90
6106;DHT22;3083;51.508;7.966;2023-03-01T12:45:48;6.40;99.90
6106;DHT22;3083;51.508;7.966;2023-03-01T12:48:28;6.40;99.90
6106;DHT22;3083;51.508;7.966;2023-03-01T12:51:01;6.50;99.90
6106;DHT22;3083;51.508;7.966;2023-03-01T12:53:32;6.50;99.90
6106;DHT22;3083;51.508;7.966;2023-03-01T12:56:06;6.40;99.90
6106;DHT22;3083;51.508;7.966;2023-03-01T12:58:40;6.40;99.90
6106;DHT22;3083;51.508;7.966;2023-03-01T13:01:18;6.30;99.90
6106;DHT22;3083;51.508;7.966;2023-03-01T13:04:00;6.30;99.90
6106;DHT22;3083;51.508;7.966;2023-03-01T13:06:34;6.20;99.90
6106;DHT22;3083;51.508;7.966;2023-03-01T13:09:10;6.10;99.90
6106;DHT22;3083;51.508;7.966;2023-03-01T13:11:41;6.00;99.90
6106;DHT22;3083;51.508;7.966;2023-03-01T13:17:30;6.10;99.90
6106;DHT22;3083;51.508;7.966;2023-03-01T13:19:58;6.10;99.90
6106;DHT22;3083;51.508;7.966;2023-03-01T13:22:28;6.20;99.90
6106;DHT22;3083;51.508;7.966;2023-03-01T13:25:14;6.20;99.90
6106;DHT22;3083;51.508;7.966;2023-03-01T13:27:41;6.10;99.90
6106;DHT22;3083;51.508;7.966;2023-03-01T13:36:08;6.00;99.90
6106;DHT22;3083;51.508;7.966;2023-03-01T13:38:45;6.10;99.90
6106;DHT22;3083;51.508;7.966;2023-03-01T13:41:13;6.10;99.90
6106;DHT22;3083;51.508;7.966;2023-03-01T13:43:41;6.20;99.90
6106;DHT22;3083;51.508;7.966;2023-03-01T13:46:12;6.30;99.90
6106;DHT22;3083;51.508;7.966;2023-03-01T13:48:43;6.30;99.90
6106;DHT22;3083;51.508;7.966;2023-03-01T13:51:12;6.30;99.90
6106;DHT22;3083;51.508;7.966;2023-03-01T13:53:42;6.30;99.90
6106;DHT22;3083;51.508;7.966;2023-03-01T13:56:13;6.30;99.90
6106;DHT22;3083;51.508;7.966;2023-03-01T13:58:48;6.30;99.90
6106;DHT22;3083;51.508;7.966;2023-03-01T14:01:22;6.30;99.90
6106;DHT22;3083;51.508;7.966;2023-03-01T14:03:50;6.30;99.90
6106;DHT22;3083;51.508;7.966;2023-03-01T14:06:21;6.20;99.90
6106;DHT22;3083;51.508;7.966;2023-03-01T14:08:50;6.20;99.90
6106;DHT22;3083;51.508;7.966;2023-03-01T14:14:42;6.20;99.90
6106;DHT22;3083;51.508;7.966;2023-03-01T14:17:29;6.20;99.90
6106;DHT22;3083;51.508;7.966;2023-03-01T14:20:00;6.20;99.90
6106;DHT22;3083;51.508;7.966;2023-03-01T14:22:33;6.30;99.90
6106;DHT22;3083;51.508;7.966;2023-03-01T14:25:04;6.30;99.90
6106;DHT22;3083;51.508;7.966;2023-03-01T14:27:35;6.30;99.90
6106;DHT22;3083;51.508;7.966;2023-03-01T14:30:13;6.20;99.90
6106;DHT22;3083;51.508;7.966;2023-03-01T14:32:41;6.20;99.90
6106;DHT22;3083;51.508;7.966;2023-03-01T14:35:20;6.20;99.90
6106;DHT22;3083;51.508;7.966;2023-03-01T14:37:48;6.20;99.90
6106;DHT22;3083;51.508;7.966;2023-03-01T14:40:27;6.20;99.90
6106;DHT22;3083;51.508;7.966;2023-03-01T14:42:56;6.10;99.90
6106;DHT22;3083;51.508;7.966;2023-03-01T14:45:26;6.20;99.90
6106;DHT22;3083;51.508;7.966;2023-03-01T14:47:54;6.20;99.90
6106;DHT22;3083;51.508;7.966;2023-03-01T14:50:25;6.30;99.90
6106;DHT22;3083;51.508;7.966;2023-03-01T14:52:56;6.30;99.90
6106;DHT22;3083;51.508;7.966;2023-03-01T14:55:28;6.30;99.90
6106;DHT22;3083;51.508;7.966;2023-03-01T14:57:57;6.30;99.90
6106;DHT22;3083;51.508;7.966;2023-03-01T15:00:26;6.30;99.90
6106;DHT22;3083;51.508;7.966;2023-03-01T15:02:56;6.20;99.90
6106;DHT22;3083;51.508;7.966;2023-03-01T15:05:27;6.20;99.90
6106;DHT22;3083;51.508;7.966;2023-03-01T15:07:57;6.10;99.90
6106;DHT22;3083;51.508;7.966;2023-03-01T15:10:27;6.10;99.90
6106;DHT22;3083;51.508;7.966;2023-03-01T15:12:55;6.10;99.90
6106;DHT22;3083;51.508;7.966;2023-03-01T15:15:37;6.10;99.90
6106;DHT22;3083;51.508;7.966;2023-03-01T15:18:14;5.90;99.90
6106;DHT22;3083;51.508;7.966;2023-03-01T15:20:42;6.00;99.90
6106;DHT22;3083;51.508;7.966;2023-03-01T15:23:26;5.90;99.90
6106;DHT22;3083;51.508;7.966;2023-03-01T15:25:54;5.90;99.90
6106;DHT22;3083;51.508;7.966;2023-03-01T15:28:27;5.90;99.90
6106;DHT22;3083;51.508;7.966;2023-03-01T15:30:57;5.90;99.90
6106;DHT22;3083;51.508;7.966;2023-03-01T15:33:36;5.90;99.90
6106;DHT22;3083;51.508;7.966;2023-03-01T15:36:32;5.90;99.90
6106;DHT22;3083;51.508;7.966;2023-03-01T15:38:59;5.80;99.90
6106;DHT22;3083;51.508;7.966;2023-03-01T15:41:28;5.80;99.90
6106;DHT22;3083;51.508;7.966;2023-03-01T15:43:58;5.80;99.90
6106;DHT22;3083;51.508;7.966;2023-03-01T15:46:27;5.70;99.90
6106;DHT22;3083;51.508;7.966;2023-03-01T15:48:57;5.70;99.90
6106;DHT22;3083;51.508;7.966;2023-03-01T15:51:29;5.60;99.90
6106;DHT22;3083;51.508;7.966;2023-03-01T15:54:00;5.60;99.90
6106;DHT22;3083;51.508;7.966;2023-03-01T15:56:28;5.50;99.90
6106;DHT22;3083;51.508;7.966;2023-03-01T15:58:59;5.50;99.90
6106;DHT22;3083;51.508;7.966;2023-03-01T16:01:27;5.50;99.90
6106;DHT22;3083;51.508;7.966;2023-03-01T16:03:54;5.40;99.90
6106;DHT22;3083;51.508;7.966;2023-03-01T16:06:22;5.30;99.90
6106;DHT22;3083;51.508;7.966;2023-03-01T16:08:49;5.30;99.90
6106;DHT22;3083;51.508;7.966;2023-03-01T16:11:19;5.30;99.90
6106;DHT22;3083;51.508;7.966;2023-03-01T16:13:46;5.30;99.90
6106;DHT22;3083;51.508;7.966;2023-03-01T16:16:14;5.20;99.90
6106;DHT22;3083;51.508;7.966;2023-03-01T16:18:45;5.20;99.90
6106;DHT22;3083;51.508;7.966;2023-03-01T16:21:20;5.10;99.90
6106;DHT22;3083;51.508;7.966;2023-03-01T16:23:47;5.10;99.90
6106;DHT22;3083;51.508;7.966;2023-03-01T16:26:14;5.00;99.90
6106;DHT22;3083;51.508;7.966;2023-03-01T16:28:43;4.90;99.90
6106;DHT22;3083;51.508;7.966;2023-03-01T16:31:10;4.80;99.90
6106;DHT22;3083;51.508;7.966;2023-03-01T16:33:38;4.70;99.90
6106;DHT22;3083;51.508;7.966;2023-03-01T16:36:09;4.70;99.90
6106;DHT22;3083;51.508;7.966;2023-03-01T16:38:37;4.50;99.90
6106;DHT22;3083;51.508;7.966;2023-03-01T16:41:05;4.40;99.90
6106;DHT22;3083;51.508;7.966;2023-03-01T16:43:33;4.20;99.90
6106;DHT22;3083;51.508;7.966;2023-03-01T16:46:01;4.10;99.90
6106;DHT22;3083;51.508;7.966;2023-03-01T16:48:29;4.00;99.90